Ana Sayfa
METAR-TAF:

METAR-TAF

Havaalanları :

Bandırma Havalimanı

Bandırma, Türkiye

Enlem: 40-19N, Boylam: 027-58E, yükseklik: 51 m

METAR: eksik

Saat: 15:58 (12:58 UTC)

Tahmin

Rapor saat 10:40 UTC de 2 saat ve 18 dakika önce yapıldı.
Ayın 20'si saat 12 UTC'den ayın 20'si saat 21 UTC'ye kadar geçerli Tahmin
Rüzgar doğu/kuzeydoğudan 18 kt ve 32 kt'a kadar ani rüzgarlar
Görüş mesafesi 10 km veya daha fazla
1500 m altında bulut yok ve kümülonimbus yok

TAF: LTBG 201040Z 2012/2021 06018G32KT CAVOK

4.000'den fazla havaalanı için hava durumu gözlemleri ve tahminleri (METAR ve TAF raporları).

Kullanılabilir istasyonlar harita üzerinde sarı ve kırmızı noktalarla gösterilir.

İstasyonun adını görmek için fareyi noktanın üzerinde gezdirin.

Sonrasında hava gözlem ve tahminlerini görmek için tıklayın.

Haritayı değiştirmek için: yaklaştırmak için siyah artı işaretli yeşil düğmeye ve uzaklaştırmak için de eksi işaretli düğmeye hızla tıklayın; bitişik haritalar için yeşil okları kullanın.


METAR-TAF: